createdAt,value
2018-01-30T00:00:13.276Z,93.20
2018-01-30T00:02:40.268Z,93.20
2018-01-30T00:05:06.535Z,93.20
2018-01-30T00:07:33.569Z,93.10
2018-01-30T00:10:00.541Z,93.00
2018-01-30T00:12:26.796Z,93.00
2018-01-30T00:14:53.826Z,93.00
2018-01-30T00:17:20.087Z,93.00
2018-01-30T00:19:46.347Z,93.00
2018-01-30T00:22:12.604Z,92.90
2018-01-30T00:24:38.872Z,92.90
2018-01-30T00:27:05.157Z,92.80
2018-01-30T00:29:31.440Z,92.70
2018-01-30T00:31:58.454Z,92.70
2018-01-30T00:34:24.684Z,92.70
2018-01-30T00:36:50.945Z,92.60
2018-01-30T00:39:17.234Z,92.60
2018-01-30T00:41:43.479Z,92.40
2018-01-30T00:44:09.740Z,92.30
2018-01-30T00:46:35.984Z,92.30
2018-01-30T00:49:02.277Z,92.20
2018-01-30T00:51:29.283Z,92.20
2018-01-30T00:53:55.504Z,92.10
2018-01-30T00:56:21.758Z,92.00
2018-01-30T00:58:48.001Z,92.10
2018-01-30T01:01:14.242Z,92.10
2018-01-30T01:03:40.484Z,92.00
2018-01-30T01:06:06.769Z,91.90
2018-01-30T01:08:33.012Z,91.90
2018-01-30T01:10:59.744Z,91.90
2018-01-30T01:13:26.007Z,92.00
2018-01-30T01:15:52.259Z,92.00
2018-01-30T01:18:19.249Z,91.70
2018-01-30T01:20:45.519Z,91.60
2018-01-30T01:23:11.790Z,91.70
2018-01-30T01:25:39.389Z,91.70
2018-01-30T01:28:05.660Z,91.70
2018-01-30T01:30:31.904Z,91.70
2018-01-30T01:32:58.146Z,91.70
2018-01-30T01:35:24.397Z,91.60
2018-01-30T01:37:51.679Z,91.60
2018-01-30T01:40:17.915Z,91.60
2018-01-30T01:42:44.162Z,91.60
2018-01-30T01:45:10.397Z,91.70
2018-01-30T01:47:36.662Z,91.70
2018-01-30T01:50:03.663Z,91.70
2018-01-30T01:52:29.914Z,91.70
2018-01-30T01:54:56.198Z,91.70
2018-01-30T01:57:23.184Z,91.80
2018-01-30T01:59:49.456Z,91.80
2018-01-30T02:02:15.693Z,91.80
2018-01-30T02:04:41.943Z,91.90
2018-01-30T02:07:08.539Z,92.00
2018-01-30T02:09:35.508Z,91.90
2018-01-30T02:12:01.772Z,91.90
2018-01-30T02:14:28.038Z,91.90
2018-01-30T02:16:54.281Z,92.00
2018-01-30T02:19:20.571Z,92.10
2018-01-30T02:21:46.812Z,92.10
2018-01-30T02:24:13.079Z,92.20
2018-01-30T02:26:39.318Z,92.30
2018-01-30T02:29:05.570Z,92.40
2018-01-30T02:31:31.833Z,92.40
2018-01-30T02:33:58.060Z,92.50
2018-01-30T02:36:24.293Z,92.50
2018-01-30T02:38:50.542Z,92.50
2018-01-30T02:41:16.790Z,92.50
2018-01-30T02:43:43.083Z,92.40
2018-01-30T02:46:09.318Z,92.40
2018-01-30T02:48:35.538Z,92.40
2018-01-30T02:51:03.551Z,92.40
2018-01-30T02:53:29.795Z,92.40
2018-01-30T02:55:56.066Z,92.40
2018-01-30T02:58:22.294Z,92.50
2018-01-30T03:00:48.901Z,92.60
2018-01-30T03:03:15.929Z,92.70
2018-01-30T03:05:42.174Z,92.60
2018-01-30T03:08:08.455Z,92.70
2018-01-30T03:10:34.708Z,92.50
2018-01-30T03:13:01.015Z,92.60
2018-01-30T03:15:28.002Z,92.60
2018-01-30T03:17:54.247Z,92.60
2018-01-30T03:20:20.499Z,92.60
2018-01-30T03:22:46.742Z,92.60
2018-01-30T03:25:13.015Z,92.50
2018-01-30T03:27:39.250Z,92.60
2018-01-30T03:30:05.488Z,92.50
2018-01-30T03:32:31.736Z,92.30
2018-01-30T03:34:57.966Z,92.40
2018-01-30T03:37:24.230Z,92.40
2018-01-30T03:39:50.468Z,92.50
2018-01-30T03:42:16.727Z,92.70
2018-01-30T03:44:43.739Z,92.80
2018-01-30T03:47:09.973Z,92.80
2018-01-30T03:49:36.214Z,92.90
2018-01-30T03:52:02.460Z,93.00
2018-01-30T03:54:28.712Z,93.20
2018-01-30T03:56:54.933Z,93.20
2018-01-30T03:59:21.188Z,93.30
2018-01-30T04:01:47.450Z,93.40
2018-01-30T04:04:13.709Z,93.50
2018-01-30T04:06:40.709Z,93.60
2018-01-30T04:09:06.969Z,93.60
2018-01-30T04:11:33.172Z,93.60
2018-01-30T04:13:59.468Z,93.70
2018-01-30T04:16:25.717Z,93.50
2018-01-30T04:18:52.226Z,93.50
2018-01-30T04:21:18.470Z,93.50
2018-01-30T04:23:44.703Z,93.50
2018-01-30T04:26:10.965Z,93.40
2018-01-30T04:28:37.187Z,93.30
2018-01-30T04:31:03.471Z,93.50
2018-01-30T04:33:29.706Z,93.50
2018-01-30T04:35:55.952Z,93.70
2018-01-30T04:38:22.230Z,93.60
2018-01-30T04:40:48.465Z,93.90
2018-01-30T04:43:14.728Z,93.80
2018-01-30T04:45:40.960Z,93.90
2018-01-30T04:48:07.209Z,94.00
2018-01-30T04:50:33.484Z,94.10
2018-01-30T04:52:59.716Z,94.20
2018-01-30T04:55:26.008Z,94.20
2018-01-30T04:57:52.246Z,94.20
2018-01-30T05:00:18.525Z,94.20
2018-01-30T05:02:44.768Z,94.70
2018-01-30T05:05:11.012Z,95.50
2018-01-30T05:07:37.303Z,95.30
2018-01-30T05:10:04.293Z,94.50
2018-01-30T05:12:30.572Z,94.50
2018-01-30T05:14:56.824Z,94.20
2018-01-30T05:17:23.043Z,94.10
2018-01-30T05:19:49.296Z,93.60
2018-01-30T05:22:15.542Z,93.60
2018-01-30T05:24:41.809Z,93.90
2018-01-30T05:27:08.044Z,94.30
2018-01-30T05:29:35.067Z,94.30
2018-01-30T05:32:01.311Z,94.30
2018-01-30T05:34:27.557Z,94.00
2018-01-30T05:36:53.819Z,93.70
2018-01-30T05:39:20.823Z,94.50
2018-01-30T05:41:47.097Z,94.60
2018-01-30T05:44:13.350Z,94.10
2018-01-30T05:46:40.328Z,93.60
2018-01-30T05:49:06.580Z,93.60
2018-01-30T05:51:32.818Z,93.40
2018-01-30T05:53:59.084Z,93.20
2018-01-30T05:56:25.376Z,93.50
2018-01-30T05:58:53.385Z,94.40
2018-01-30T06:01:19.640Z,94.40
2018-01-30T06:03:45.915Z,94.70
2018-01-30T06:06:12.190Z,95.10
2018-01-30T06:08:39.171Z,95.70
2018-01-30T06:11:05.442Z,95.70
2018-01-30T06:13:31.667Z,95.90
2018-01-30T06:15:57.913Z,96.30
2018-01-30T06:18:24.166Z,96.60
2018-01-30T06:20:50.414Z,96.70
2018-01-30T06:23:16.710Z,97.00
2018-01-30T06:25:42.977Z,97.20
2018-01-30T06:28:09.238Z,97.50
2018-01-30T06:30:36.228Z,97.80
2018-01-30T06:33:03.227Z,97.90
2018-01-30T06:35:29.509Z,97.80
2018-01-30T06:37:55.731Z,97.90
2018-01-30T06:40:21.969Z,98.00
2018-01-30T06:42:48.296Z,98.10
2018-01-30T06:45:14.545Z,98.20
2018-01-30T06:47:40.813Z,98.40
2018-01-30T06:50:07.078Z,98.50
2018-01-30T06:52:34.037Z,98.60
2018-01-30T06:55:01.000Z,98.70
2018-01-30T06:57:28.990Z,98.80
2018-01-30T06:59:55.218Z,98.70
2018-01-30T07:02:22.230Z,99.20
2018-01-30T07:04:48.466Z,98.90
2018-01-30T07:07:14.724Z,99.00
2018-01-30T07:09:40.986Z,99.10
2018-01-30T07:12:07.227Z,99.10
2018-01-30T07:14:34.236Z,99.30
2018-01-30T07:17:00.472Z,99.20
2018-01-30T07:19:26.700Z,99.40
2018-01-30T07:21:52.997Z,99.30
2018-01-30T07:24:19.229Z,99.50
2018-01-30T07:26:45.511Z,99.60
2018-01-30T07:29:12.499Z,99.10
2018-01-30T07:31:38.762Z,99.10
2018-01-30T07:34:05.792Z,98.40
2018-01-30T07:36:32.049Z,98.40
2018-01-30T07:38:58.322Z,98.40
2018-01-30T07:41:24.589Z,98.30
2018-01-30T07:43:51.578Z,98.00
2018-01-30T07:46:17.837Z,98.00
2018-01-30T07:48:44.095Z,97.80
2018-01-30T07:51:10.360Z,97.70
2018-01-30T07:53:37.387Z,97.60
2018-01-30T07:56:03.659Z,97.60
2018-01-30T07:58:30.655Z,97.40
2018-01-30T08:00:56.910Z,97.30
2018-01-30T08:03:23.116Z,97.30
2018-01-30T08:05:49.379Z,97.10
2018-01-30T08:08:15.665Z,97.00
2018-01-30T08:10:41.942Z,96.90
2018-01-30T08:13:08.170Z,96.80
2018-01-30T08:15:35.156Z,96.50
2018-01-30T08:18:01.439Z,96.50
2018-01-30T08:20:27.694Z,96.30
2018-01-30T08:22:53.959Z,97.90
2018-01-30T08:25:20.216Z,97.80
2018-01-30T08:27:46.447Z,97.90
2018-01-30T08:30:12.724Z,97.10
2018-01-30T08:32:38.992Z,97.70
2018-01-30T08:35:05.269Z,97.20
2018-01-30T08:37:31.519Z,96.30
2018-01-30T08:39:57.814Z,96.30
2018-01-30T08:42:24.075Z,95.90
2018-01-30T08:44:51.053Z,94.80
2018-01-30T08:47:17.336Z,94.80
2018-01-30T08:49:43.633Z,94.20
2018-01-30T08:52:09.944Z,94.00
2018-01-30T08:54:36.207Z,94.20
2018-01-30T08:57:02.482Z,94.80
2018-01-30T08:59:28.736Z,95.20
2018-01-30T09:01:55.000Z,95.70
2018-01-30T09:04:21.253Z,96.00
2018-01-30T09:06:48.278Z,96.50
2018-01-30T09:09:14.588Z,96.50
2018-01-30T09:11:40.818Z,96.70
2018-01-30T09:14:07.116Z,96.90
2018-01-30T09:16:33.392Z,97.10
2018-01-30T09:19:00.378Z,97.40
2018-01-30T09:21:26.653Z,97.40
2018-01-30T09:23:54.442Z,97.40
2018-01-30T09:26:20.737Z,97.40
2018-01-30T09:28:46.987Z,97.40
2018-01-30T09:31:13.236Z,97.30
2018-01-30T09:33:39.500Z,96.70
2018-01-30T09:36:06.500Z,96.70
2018-01-30T09:38:32.799Z,96.70
2018-01-30T09:40:59.065Z,96.60
2018-01-30T09:43:26.062Z,96.40
2018-01-30T09:45:52.332Z,96.30
2018-01-30T09:48:18.552Z,96.20
2018-01-30T09:50:44.812Z,96.30
2018-01-30T09:53:11.093Z,96.20
2018-01-30T09:55:38.072Z,95.80
2018-01-30T09:58:04.330Z,95.80
2018-01-30T10:00:30.601Z,95.60
2018-01-30T10:02:56.860Z,95.50
2018-01-30T10:05:23.109Z,95.40
2018-01-30T10:07:50.104Z,94.80
2018-01-30T10:10:16.368Z,94.80
2018-01-30T10:12:42.905Z,94.30
2018-01-30T10:15:09.161Z,94.00
2018-01-30T10:17:35.432Z,94.10
2018-01-30T10:20:02.444Z,94.00
2018-01-30T10:22:28.660Z,94.00
2018-01-30T10:24:54.962Z,93.90
2018-01-30T10:27:21.250Z,94.00
2018-01-30T10:29:47.491Z,94.30
2018-01-30T10:32:13.744Z,94.30
2018-01-30T10:34:39.994Z,94.60
2018-01-30T10:37:06.230Z,94.80
2018-01-30T10:39:32.497Z,94.70
2018-01-30T10:41:58.763Z,94.60
2018-01-30T10:44:25.753Z,93.60
2018-01-30T10:46:51.983Z,93.60
2018-01-30T10:49:19.804Z,93.80
2018-01-30T10:51:46.045Z,93.80
2018-01-30T10:54:12.322Z,94.10
2018-01-30T10:56:39.318Z,94.10
2018-01-30T10:59:05.561Z,94.10
2018-01-30T11:01:31.823Z,94.20
2018-01-30T11:03:58.090Z,94.20
2018-01-30T11:06:24.344Z,94.20
2018-01-30T11:08:51.340Z,94.20
2018-01-30T11:11:17.588Z,94.20
2018-01-30T11:13:43.839Z,93.90
2018-01-30T11:16:10.086Z,94.10
2018-01-30T11:18:36.378Z,94.30
2018-01-30T11:21:02.634Z,94.30
2018-01-30T11:23:28.925Z,94.20
2018-01-30T11:25:55.213Z,94.20
2018-01-30T11:28:21.478Z,95.70
2018-01-30T11:30:47.724Z,94.90
2018-01-30T11:33:14.007Z,94.50
2018-01-30T11:35:41.039Z,94.30
2018-01-30T11:38:07.291Z,94.20
2018-01-30T11:40:33.581Z,94.30
2018-01-30T11:42:59.823Z,94.30
2018-01-30T11:45:26.851Z,94.20
2018-01-30T11:47:53.867Z,94.10
2018-01-30T11:50:20.166Z,94.00
2018-01-30T11:52:46.436Z,94.00
2018-01-30T11:55:12.693Z,94.00
2018-01-30T11:57:38.970Z,94.00
2018-01-30T12:00:05.231Z,94.00
2018-01-30T12:02:31.508Z,94.10
2018-01-30T12:04:57.760Z,94.20
2018-01-30T12:07:24.023Z,94.20
2018-01-30T12:09:50.274Z,94.10
2018-01-30T12:12:16.517Z,94.30
2018-01-30T12:14:43.556Z,95.10
2018-01-30T12:17:09.817Z,94.90
2018-01-30T12:19:36.049Z,95.30
2018-01-30T12:22:03.053Z,95.90
2018-01-30T12:24:29.325Z,95.80
2018-01-30T12:26:55.668Z,96.10
2018-01-30T12:29:21.934Z,96.40
2018-01-30T12:31:48.198Z,96.70
2018-01-30T12:34:15.200Z,97.40
2018-01-30T12:36:41.461Z,97.30
2018-01-30T12:39:07.719Z,97.60
2018-01-30T12:41:33.973Z,98.00
2018-01-30T12:44:00.973Z,98.30
2018-01-30T12:46:27.250Z,98.20
2018-01-30T12:48:53.492Z,98.40
2018-01-30T12:51:19.787Z,98.50
2018-01-30T12:53:46.033Z,98.70
2018-01-30T12:56:12.298Z,98.60
2018-01-30T12:58:38.590Z,98.50
2018-01-30T13:01:04.869Z,98.40
2018-01-30T13:03:31.124Z,98.10
2018-01-30T13:05:57.378Z,97.90
2018-01-30T13:08:23.678Z,97.70
2018-01-30T13:10:49.936Z,97.80
2018-01-30T13:13:16.211Z,97.90
2018-01-30T13:15:42.442Z,98.00
2018-01-30T13:18:08.691Z,97.60
2018-01-30T13:20:34.961Z,97.40
2018-01-30T13:23:01.194Z,97.30
2018-01-30T13:25:28.204Z,96.80
2018-01-30T13:27:54.455Z,96.80
2018-01-30T13:30:20.742Z,96.80
2018-01-30T13:32:46.990Z,96.70
2018-01-30T13:35:13.239Z,96.80
2018-01-30T13:37:39.487Z,96.80
2018-01-30T13:40:05.746Z,96.80
2018-01-30T13:42:32.006Z,96.50
2018-01-30T13:44:58.260Z,96.40
2018-01-30T13:47:24.518Z,96.70
2018-01-30T13:49:51.519Z,96.50
2018-01-30T13:52:17.813Z,96.50
2018-01-30T13:54:44.828Z,96.60
2018-01-30T13:57:11.085Z,96.60
2018-01-30T13:59:37.655Z,96.60
2018-01-30T14:02:04.648Z,97.00
2018-01-30T14:04:30.966Z,97.00
2018-01-30T14:06:57.261Z,97.20
2018-01-30T14:09:23.535Z,97.10
2018-01-30T14:11:50.536Z,97.30
2018-01-30T14:14:16.780Z,97.30
2018-01-30T14:16:43.063Z,97.30
2018-01-30T14:19:09.323Z,97.30
2018-01-30T14:21:36.304Z,97.50
2018-01-30T14:24:02.603Z,97.30
2018-01-30T14:26:29.624Z,97.60
2018-01-30T14:28:55.910Z,97.50
2018-01-30T14:31:22.155Z,97.50
2018-01-30T14:33:48.407Z,97.40
2018-01-30T14:36:15.421Z,97.50
2018-01-30T14:38:42.431Z,97.60
2018-01-30T14:41:09.428Z,97.80
2018-01-30T14:43:35.675Z,97.70
2018-01-30T14:46:01.972Z,98.00
2018-01-30T14:48:28.987Z,98.40
2018-01-30T14:50:55.573Z,98.40
2018-01-30T14:53:22.578Z,98.60
2018-01-30T14:55:48.836Z,98.60
2018-01-30T14:58:15.118Z,98.60
2018-01-30T15:00:42.121Z,98.60
2018-01-30T15:03:08.420Z,98.60
2018-01-30T15:05:35.426Z,98.90
2018-01-30T15:08:01.673Z,98.90
2018-01-30T15:10:27.971Z,99.20
2018-01-30T15:12:54.253Z,99.20
2018-01-30T15:15:20.525Z,99.20
2018-01-30T15:17:47.099Z,99.00
2018-01-30T15:20:13.384Z,99.20
2018-01-30T15:22:39.642Z,99.00
2018-01-30T15:25:05.924Z,98.90
2018-01-30T15:27:32.182Z,98.90
2018-01-30T15:29:58.417Z,98.90
2018-01-30T15:32:24.720Z,99.00
2018-01-30T15:34:50.935Z,99.10
2018-01-30T15:37:17.215Z,99.10
2018-01-30T15:39:44.204Z,99.10
2018-01-30T15:42:10.498Z,99.10
2018-01-30T15:44:36.753Z,99.20
2018-01-30T15:47:03.016Z,99.30
2018-01-30T15:49:29.306Z,99.40
2018-01-30T15:51:55.551Z,99.50
2018-01-30T15:54:21.848Z,99.60
2018-01-30T15:56:48.106Z,99.80
2018-01-30T15:59:14.391Z,99.90
2018-01-30T16:01:40.680Z,99.90
2018-01-30T16:04:06.950Z,99.90
2018-01-30T16:06:33.255Z,99.90
2018-01-30T16:08:59.545Z,99.90
2018-01-30T16:11:25.835Z,99.90
2018-01-30T16:13:52.145Z,99.90
2018-01-30T16:16:18.382Z,99.90
2018-01-30T16:18:44.654Z,99.90
2018-01-30T16:21:10.930Z,99.90
2018-01-30T16:23:37.961Z,99.90
2018-01-30T16:26:04.209Z,99.90
2018-01-30T16:28:30.472Z,99.90
2018-01-30T16:30:56.761Z,99.90
2018-01-30T16:33:23.767Z,99.90
2018-01-30T16:35:50.041Z,99.90
2018-01-30T16:38:16.291Z,99.90
2018-01-30T16:40:42.568Z,99.90
2018-01-30T16:43:08.861Z,99.90
2018-01-30T16:45:35.122Z,99.90
2018-01-30T16:48:02.156Z,99.90
2018-01-30T16:50:28.405Z,99.90
2018-01-30T16:52:54.697Z,99.90
2018-01-30T16:55:20.948Z,99.90
2018-01-30T16:57:47.191Z,99.90
2018-01-30T17:00:13.493Z,99.90
2018-01-30T17:02:40.491Z,99.90
2018-01-30T17:05:06.762Z,99.90
2018-01-30T17:07:33.058Z,99.90
2018-01-30T17:09:59.367Z,99.90
2018-01-30T17:12:25.725Z,99.90
2018-01-30T17:14:52.733Z,99.90
2018-01-30T17:17:19.021Z,99.90
2018-01-30T17:19:46.008Z,99.90
2018-01-30T17:22:12.279Z,99.90
2018-01-30T17:24:38.551Z,99.90
2018-01-30T17:27:05.587Z,99.90
2018-01-30T17:29:31.882Z,99.90
2018-01-30T17:31:58.160Z,99.90
2018-01-30T17:34:24.455Z,99.90
2018-01-30T17:36:50.781Z,99.90
2018-01-30T17:39:17.052Z,99.90
2018-01-30T17:41:43.333Z,99.90
2018-01-30T17:44:10.422Z,99.90
2018-01-30T17:46:37.433Z,99.90
2018-01-30T17:49:03.687Z,99.90
2018-01-30T17:51:30.047Z,99.90
2018-01-30T17:53:56.351Z,99.90
2018-01-30T17:56:22.720Z,99.90
2018-01-30T17:58:49.017Z,99.90
2018-01-30T18:01:15.343Z,99.90
2018-01-30T18:03:42.382Z,99.90
2018-01-30T18:06:08.720Z,99.90
2018-01-30T18:08:35.008Z,99.90
2018-01-30T18:11:01.309Z,99.90
2018-01-30T18:13:27.608Z,99.90
2018-01-30T18:15:53.884Z,99.90
2018-01-30T18:18:20.212Z,99.90
2018-01-30T18:20:46.550Z,99.90
2018-01-30T18:23:12.935Z,99.90
2018-01-30T18:25:39.972Z,99.90
2018-01-30T18:28:06.315Z,99.90
2018-01-30T18:30:32.726Z,99.90
2018-01-30T18:32:59.037Z,99.90
2018-01-30T18:35:26.163Z,99.90
2018-01-30T18:37:52.504Z,99.90
2018-01-30T18:40:18.840Z,99.90
2018-01-30T18:42:45.177Z,99.90
2018-01-30T18:45:11.475Z,99.90
2018-01-30T18:47:37.867Z,99.90
2018-01-30T18:50:04.195Z,99.90
2018-01-30T18:52:30.492Z,99.90
2018-01-30T18:54:57.552Z,99.90
2018-01-30T18:57:24.647Z,99.90
2018-01-30T18:59:51.004Z,99.90
2018-01-30T19:02:17.373Z,99.90
2018-01-30T19:04:43.716Z,99.90
2018-01-30T19:07:10.049Z,99.90
2018-01-30T19:09:36.439Z,99.90
2018-01-30T19:12:02.803Z,99.90
2018-01-30T19:14:29.203Z,99.90
2018-01-30T19:16:55.582Z,99.90
2018-01-30T19:19:21.928Z,99.90
2018-01-30T19:21:48.303Z,99.90
2018-01-30T19:24:15.421Z,99.90
2018-01-30T19:26:41.806Z,99.90
2018-01-30T19:29:08.178Z,99.90
2018-01-30T19:31:35.616Z,99.90
2018-01-30T19:34:01.994Z,99.90
2018-01-30T19:36:28.376Z,99.90
2018-01-30T19:38:54.731Z,99.90
2018-01-30T19:41:21.061Z,99.90
2018-01-30T19:43:47.469Z,99.90
2018-01-30T19:46:13.857Z,99.90
2018-01-30T19:48:40.262Z,99.90
2018-01-30T19:51:07.431Z,99.90
2018-01-30T19:53:34.551Z,99.90
2018-01-30T19:56:00.965Z,99.90
2018-01-30T19:58:27.327Z,99.90
2018-01-30T20:00:53.660Z,99.90
2018-01-30T20:03:20.060Z,99.90
2018-01-30T20:05:47.169Z,99.90
2018-01-30T20:08:13.580Z,99.90
2018-01-30T20:10:40.668Z,99.90
2018-01-30T20:13:07.021Z,99.90
2018-01-30T20:15:33.439Z,99.90
2018-01-30T20:17:59.819Z,99.90
2018-01-30T20:20:26.236Z,99.90
2018-01-30T20:22:52.576Z,99.90
2018-01-30T20:25:18.930Z,99.90
2018-01-30T20:27:45.323Z,99.90
2018-01-30T20:30:12.485Z,99.90
2018-01-30T20:32:39.894Z,99.90
2018-01-30T20:35:06.283Z,99.90
2018-01-30T20:37:32.709Z,99.90
2018-01-30T20:39:59.054Z,99.90
2018-01-30T20:42:25.448Z,99.90
2018-01-30T20:44:52.590Z,99.90
2018-01-30T20:47:18.982Z,99.90
2018-01-30T20:49:45.315Z,99.90
2018-01-30T20:52:12.438Z,99.90
2018-01-30T20:54:39.505Z,99.90
2018-01-30T20:57:05.880Z,99.90
2018-01-30T20:59:32.203Z,99.90
2018-01-30T21:01:59.589Z,99.90
2018-01-30T21:04:25.977Z,99.90
2018-01-30T21:06:52.302Z,99.90
2018-01-30T21:09:18.692Z,99.90
2018-01-30T21:11:45.788Z,99.90
2018-01-30T21:14:12.126Z,99.90
2018-01-30T21:16:38.469Z,99.90
2018-01-30T21:19:04.814Z,99.90
2018-01-30T21:21:31.163Z,99.90
2018-01-30T21:23:57.555Z,99.90
2018-01-30T21:26:23.903Z,99.90
2018-01-30T21:28:50.231Z,99.90
2018-01-30T21:31:16.546Z,99.90
2018-01-30T21:33:42.873Z,99.90
2018-01-30T21:36:09.226Z,99.90
2018-01-30T21:38:35.618Z,99.90
2018-01-30T21:41:01.919Z,99.90
2018-01-30T21:43:28.216Z,99.90
2018-01-30T21:45:55.235Z,99.90
2018-01-30T21:48:21.516Z,99.90
2018-01-30T21:50:48.631Z,99.90
2018-01-30T21:53:14.940Z,99.90
2018-01-30T21:55:41.231Z,99.90
2018-01-30T21:58:14.697Z,99.90
2018-01-30T22:00:40.984Z,99.90
2018-01-30T22:03:08.025Z,99.90
2018-01-30T22:05:34.359Z,99.90
2018-01-30T22:08:00.627Z,99.90
2018-01-30T22:10:26.895Z,99.90
2018-01-30T22:12:53.889Z,99.90
2018-01-30T22:15:21.245Z,99.90
2018-01-30T22:17:47.481Z,99.90
2018-01-30T22:20:13.776Z,99.90
2018-01-30T22:22:40.037Z,99.90
2018-01-30T22:25:06.532Z,99.90
2018-01-30T22:27:33.930Z,99.90
2018-01-30T22:30:01.216Z,99.90
2018-01-30T22:32:27.619Z,99.90
2018-01-30T22:34:53.889Z,99.90
2018-01-30T22:37:20.155Z,99.90
2018-01-30T22:39:46.695Z,99.90
2018-01-30T22:42:14.229Z,99.90
2018-01-30T22:44:40.717Z,99.90
